MSC Susanna — 3ECU4 — position and weather

sailwx.info

Track history (hours):
 
Tides and Currents Weather Stations Pressure Air Temp Water Temp Dewpoint Dewpoint Depression Visibility Wind Speed Wind Dir Waves Ship Positions

MSC Susanna

Last reported at 2014-Jul-04 01:25 UTC. Time now 2014-Jul-24 08:30 UTC.
Position N 30°42' E 032°21'.
Warning: this ship's position is 20 days out of date.

Length 337 m; draft 15.5 m.

Type: Ship (hazmat cat A). MMSI: 371466000.

Date/timePositionNaut miles runAvg speedWind from/ knotsBaromVisibWave heightAir tempDewpointWater temp
2014-Jul-04 01:25N 30°42' E 032°21'19 8.6
2014-Jul-03 23:11N 31°01' E 032°19'26 9.3
2014-Jul-03 20:23N 31°27' E 032°22'1 1.6
2014-Jul-03 19:33N 31°28' E 032°21'1 0.7
2014-Jul-03 18:26N 31°28' E 032°20'0 0.0
2014-Jul-03 17:33N 31°28' E 032°20'0 0.0
2014-Jul-03 16:31N 31°28' E 032°20'0 0.0
2014-Jul-03 15:33N 31°28' E 032°20'0 0.0
2014-Jul-03 14:31N 31°28' E 032°20'0 0.0
2014-Jul-03 13:32N 31°28' E 032°20'0 0.0
2014-Jul-03 12:31N 31°28' E 032°20'4 3.9
2014-Jul-03 11:33N 31°29' E 032°16'3115.5
2014-Jul-03 09:33N 31°50' E 031°49'2215.3
2014-Jul-03 08:09N 31°59' E 031°26'915.3
2014-Jul-03 07:32N 32°02' E 031°16'2216.8
2014-Jul-03 06:14N 32°10' E 030°52'1515.5
2014-Jul-03 05:17N 32°16' E 030°36'8414.7
2014-Jul-02 23:33N 32°48' E 029°04'34114.5
2014-Jul-02 00:06N 35°04' E 022°46'4314.5
2014-Jul-01 21:10N 35°23' E 021°60'1114.4
2014-Jul-01 20:24N 35°28' E 021°48'1214.4
2014-Jul-01 19:33N 35°33' E 021°34'322 8.7
2014-Jun-30 06:24N 38°27' E 015°54'0 0.0
2014-Jun-29 12:08N 38°28' E 015°54'0 0.0
2014-Jun-29 11:32N 38°28' E 015°54'0 0.0
2014-Jun-29 10:32N 38°28' E 015°54'0 0.0
2014-Jun-29 09:32N 38°27' E 015°54'0 0.0
2014-Jun-29 08:32N 38°28' E 015°54'0 0.0
2014-Jun-29 07:32N 38°28' E 015°54'0 0.0
2014-Jun-29 06:32N 38°28' E 015°54'0 0.0
2014-Jun-29 04:32N 38°28' E 015°54'0 0.0
2014-Jun-29 03:26N 38°28' E 015°54'21 1.4
2014-Jun-28 12:27N 38°23' E 015°28'910.0
2014-Jun-28 11:33N 38°22' E 015°17'10 9.7
2014-Jun-28 10:33N 38°20' E 015°05'5110.0
2014-Jun-28 05:25N 38°19' E 013°60'1011.2
2014-Jun-28 04:31N 38°19' E 013°47'1111.2
2014-Jun-28 03:33N 38°19' E 013°33'1111.2
2014-Jun-28 02:33N 38°19' E 013°19'1110.9
2014-Jun-28 01:33N 38°19' E 013°05'1110.5
2014-Jun-28 00:33N 38°19' E 012°52'1010.4
2014-Jun-27 23:33N 38°19' E 012°38'7011.0
2014-Jun-27 17:14N 38°15' E 011°10'1911.3
2014-Jun-27 15:33N 38°12' E 010°46'10 9.4
2014-Jun-27 14:29N 38°11' E 010°33'8 9.0
2014-Jun-27 13:33N 38°10' E 010°23'9 9.2
2014-Jun-27 12:33N 38°09' E 010°11'9 9.1
2014-Jun-27 11:33N 38°08' E 009°60'2713.4
2014-Jun-27 09:33N 38°01' E 009°26'1514.5
2014-Jun-27 08:33N 37°57' E 009°09'23916.8
2014-Jun-26 18:19N 37°06' E 004°14'1418.3
2014-Jun-26 17:33N 37°04' E 003°57'1918.4
2014-Jun-26 16:30N 37°01' E 003°33'2218.4
2014-Jun-26 15:17N 36°58' E 003°06'1418.7
2014-Jun-26 14:33N 36°56' E 002°49'1818.2
2014-Jun-26 13:33N 36°54' E 002°26'14217.8
2014-Jun-26 05:32N 36°20' W 000°27'45315.5
2014-Jun-25 00:22N 37°34' W 009°46'1415.9
2014-Jun-24 23:29N 37°47' W 009°50'1516.1
2014-Jun-24 22:32N 38°02' W 009°54'  
Track history (hours):
 
Tides and Currents Weather Stations Pressure Air Temp Water Temp Dewpoint Dewpoint Depression Visibility Wind Speed Wind Dir Waves Ship Positions

MSC Susanna

Last reported at 2014-Jul-04 01:25 UTC. Time now 2014-Jul-24 08:30 UTC.
Position N 30°42' E 032°21'.
Warning: this ship's position is 20 days out of date.

Length 337 m; draft 15.5 m.

Type: Ship (hazmat cat A). MMSI: 371466000.

Date/timePositionNaut miles runAvg speedWind from/ knotsBaromVisibWave heightAir tempDewpointWater temp
2014-Jul-04 01:25N 30°42' E 032°21'19 8.6
2014-Jul-03 23:11N 31°01' E 032°19'26 9.3
2014-Jul-03 20:23N 31°27' E 032°22'1 1.6
2014-Jul-03 19:33N 31°28' E 032°21'1 0.7
2014-Jul-03 18:26N 31°28' E 032°20'0 0.0
2014-Jul-03 17:33N 31°28' E 032°20'0 0.0
2014-Jul-03 16:31N 31°28' E 032°20'0 0.0
2014-Jul-03 15:33N 31°28' E 032°20'0 0.0
2014-Jul-03 14:31N 31°28' E 032°20'0 0.0
2014-Jul-03 13:32N 31°28' E 032°20'0 0.0
2014-Jul-03 12:31N 31°28' E 032°20'4 3.9
2014-Jul-03 11:33N 31°29' E 032°16'3115.5
2014-Jul-03 09:33N 31°50' E 031°49'2215.3
2014-Jul-03 08:09N 31°59' E 031°26'915.3
2014-Jul-03 07:32N 32°02' E 031°16'2216.8
2014-Jul-03 06:14N 32°10' E 030°52'1515.5
2014-Jul-03 05:17N 32°16' E 030°36'8414.7
2014-Jul-02 23:33N 32°48' E 029°04'34114.5
2014-Jul-02 00:06N 35°04' E 022°46'4314.5
2014-Jul-01 21:10N 35°23' E 021°60'1114.4
2014-Jul-01 20:24N 35°28' E 021°48'1214.4
2014-Jul-01 19:33N 35°33' E 021°34'322 8.7
2014-Jun-30 06:24N 38°27' E 015°54'0 0.0
2014-Jun-29 12:08N 38°28' E 015°54'0 0.0
2014-Jun-29 11:32N 38°28' E 015°54'0 0.0
2014-Jun-29 10:32N 38°28' E 015°54'0 0.0
2014-Jun-29 09:32N 38°27' E 015°54'0 0.0
2014-Jun-29 08:32N 38°28' E 015°54'0 0.0
2014-Jun-29 07:32N 38°28' E 015°54'0 0.0
2014-Jun-29 06:32N 38°28' E 015°54'0 0.0
2014-Jun-29 04:32N 38°28' E 015°54'0 0.0
2014-Jun-29 03:26N 38°28' E 015°54'21 1.4
2014-Jun-28 12:27N 38°23' E 015°28'910.0
2014-Jun-28 11:33N 38°22' E 015°17'10 9.7
2014-Jun-28 10:33N 38°20' E 015°05'5110.0
2014-Jun-28 05:25N 38°19' E 013°60'1011.2
2014-Jun-28 04:31N 38°19' E 013°47'1111.2
2014-Jun-28 03:33N 38°19' E 013°33'1111.2
2014-Jun-28 02:33N 38°19' E 013°19'1110.9
2014-Jun-28 01:33N 38°19' E 013°05'1110.5
2014-Jun-28 00:33N 38°19' E 012°52'1010.4
2014-Jun-27 23:33N 38°19' E 012°38'7011.0
2014-Jun-27 17:14N 38°15' E 011°10'1911.3
2014-Jun-27 15:33N 38°12' E 010°46'10 9.4
2014-Jun-27 14:29N 38°11' E 010°33'8 9.0
2014-Jun-27 13:33N 38°10' E 010°23'9 9.2
2014-Jun-27 12:33N 38°09' E 010°11'9 9.1
2014-Jun-27 11:33N 38°08' E 009°60'2713.4
2014-Jun-27 09:33N 38°01' E 009°26'1514.5
2014-Jun-27 08:33N 37°57' E 009°09'23916.8
2014-Jun-26 18:19N 37°06' E 004°14'1418.3
2014-Jun-26 17:33N 37°04' E 003°57'1918.4
2014-Jun-26 16:30N 37°01' E 003°33'2218.4
2014-Jun-26 15:17N 36°58' E 003°06'1418.7
2014-Jun-26 14:33N 36°56' E 002°49'1818.2
2014-Jun-26 13:33N 36°54' E 002°26'14217.8
2014-Jun-26 05:32N 36°20' W 000°27'45315.5
2014-Jun-25 00:22N 37°34' W 009°46'1415.9
2014-Jun-24 23:29N 37°47' W 009°50'1516.1
2014-Jun-24 22:32N 38°02' W 009°54'  

Dump ship's entire track history